createdAt,value
2022-11-03T00:01:35.328Z,101349.38
2022-11-03T00:04:03.820Z,101355.75
2022-11-03T00:06:32.081Z,101356.25
2022-11-03T00:09:00.946Z,101357.84
2022-11-03T00:11:29.596Z,101347.75
2022-11-03T00:13:59.274Z,101346.97
2022-11-03T00:16:27.187Z,101353.03
2022-11-03T00:18:55.614Z,101353.03
2022-11-03T00:21:24.062Z,101350.81
2022-11-03T00:23:51.980Z,101341.50
2022-11-03T00:26:21.823Z,101349.19
2022-11-03T00:28:51.535Z,101341.50
2022-11-03T00:31:22.984Z,101334.47
2022-11-03T00:33:51.644Z,101332.84
2022-11-03T00:36:21.569Z,101327.38
2022-11-03T00:38:49.866Z,101331.22
2022-11-03T00:41:18.812Z,101324.19
2022-11-03T00:43:46.708Z,101327.88
2022-11-03T00:46:15.185Z,101324.81
2022-11-03T00:48:44.582Z,101319.53
2022-11-03T00:51:15.280Z,101315.41
2022-11-03T00:53:44.606Z,101312.69
2022-11-03T00:56:15.122Z,101309.44
2022-11-03T00:58:43.738Z,101294.69
2022-11-03T01:01:13.979Z,101302.25
2022-11-03T01:04:05.904Z,101303.88
2022-11-03T01:06:52.143Z,101304.84
2022-11-03T01:09:21.281Z,101297.63
2022-11-03T01:11:55.417Z,101302.47
2022-11-03T01:14:24.067Z,101298.63
2022-11-03T01:16:51.987Z,101301.81
2022-11-03T01:19:21.455Z,101287.88
2022-11-03T01:21:49.596Z,101297.34
2022-11-03T01:24:17.605Z,101291.91
2022-11-03T01:26:45.621Z,101292.38
2022-11-03T01:29:13.672Z,101288.53
2022-11-03T01:31:41.650Z,101288.53
2022-11-03T01:34:14.971Z,101277.16
2022-11-03T01:36:45.397Z,101279.72
2022-11-03T01:39:14.438Z,101265.00
2022-11-03T01:41:43.768Z,101265.00
2022-11-03T01:44:29.846Z,101249.91
2022-11-03T01:47:02.902Z,101254.69
2022-11-03T01:49:35.392Z,101251.03
2022-11-03T01:52:10.787Z,101238.34
2022-11-03T01:54:40.403Z,101237.75
2022-11-03T01:57:12.840Z,101226.03
2022-11-03T01:59:42.108Z,101226.88
2022-11-03T02:02:10.462Z,101230.19
2022-11-03T02:04:38.670Z,101221.69
2022-11-03T02:07:15.894Z,101222.00
2022-11-03T02:09:43.830Z,101216.38
2022-11-03T02:12:12.510Z,101211.25
2022-11-03T02:14:45.002Z,101211.72
2022-11-03T02:17:15.159Z,101198.91
2022-11-03T02:19:47.125Z,101202.75
2022-11-03T02:22:39.533Z,101196.03
2022-11-03T02:25:16.979Z,101194.44
2022-11-03T02:27:46.842Z,101196.03
2022-11-03T02:30:14.966Z,101187.84
2022-11-03T02:32:53.977Z,101181.94
2022-11-03T02:35:26.032Z,101176.50
2022-11-03T02:37:58.971Z,101167.81
2022-11-03T02:40:32.139Z,101167.66
2022-11-03T02:43:03.245Z,101159.16
2022-11-03T02:45:32.369Z,101160.75
2022-11-03T02:48:02.897Z,101153.72
2022-11-03T02:50:32.929Z,101149.88
2022-11-03T02:53:01.106Z,101141.38
2022-11-03T02:55:36.794Z,101146.53
2022-11-03T02:58:14.671Z,101138.50
2022-11-03T03:00:49.848Z,101137.38
2022-11-03T03:03:23.107Z,101132.72
2022-11-03T03:05:54.830Z,101122.63
2022-11-03T03:08:25.034Z,101132.41
2022-11-03T03:10:53.509Z,101125.03
2022-11-03T03:13:25.298Z,101121.50
2022-11-03T03:16:05.577Z,101113.66
2022-11-03T03:18:46.916Z,101122.63
2022-11-03T03:21:20.350Z,101106.28
2022-11-03T03:23:52.880Z,101108.53
2022-11-03T03:26:25.528Z,101100.03
2022-11-03T03:28:58.796Z,101100.38
2022-11-03T03:31:30.804Z,101102.78
2022-11-03T03:34:04.980Z,101094.78
2022-11-03T03:36:47.459Z,101099.56
2022-11-03T03:39:17.299Z,101091.88
2022-11-03T03:41:47.106Z,101088.19
2022-11-03T03:44:17.486Z,101082.09
2022-11-03T03:46:50.441Z,101086.09
2022-11-03T03:49:18.646Z,101082.41
2022-11-03T03:51:48.415Z,101082.56
2022-11-03T03:54:16.312Z,101073.25
2022-11-03T03:56:49.401Z,101069.41
2022-11-03T03:59:18.669Z,101082.13
2022-11-03T04:01:47.357Z,101073.13
2022-11-03T04:04:15.429Z,101079.06
2022-11-03T04:06:43.449Z,101065.91
2022-11-03T04:09:11.407Z,101071.84
2022-11-03T04:11:56.624Z,101076.31
2022-11-03T04:14:43.187Z,101066.19
2022-11-03T04:17:38.097Z,101054.50
2022-11-03T04:20:29.785Z,101044.41
2022-11-03T04:22:57.775Z,101055.47
2022-11-03T04:25:25.875Z,101057.53
2022-11-03T04:27:53.716Z,101049.22
2022-11-03T04:30:25.052Z,101040.88
2022-11-03T04:32:54.059Z,101041.22
2022-11-03T04:35:25.170Z,101045.84
2022-11-03T04:37:57.423Z,101028.41
2022-11-03T04:40:25.888Z,101030.00
2022-11-03T04:42:54.048Z,101034.50
2022-11-03T04:45:25.672Z,101016.72
2022-11-03T04:47:54.432Z,101026.63
2022-11-03T04:50:23.874Z,101020.22
2022-11-03T04:52:56.320Z,101018.59
2022-11-03T04:55:24.441Z,101014.00
2022-11-03T04:57:58.265Z,101023.91
2022-11-03T05:00:27.670Z,101014.63
2022-11-03T05:02:56.513Z,101008.69
2022-11-03T05:05:26.421Z,100999.06
2022-11-03T05:07:56.608Z,100994.75
2022-11-03T05:10:27.663Z,100998.28
2022-11-03T05:12:56.434Z,100990.44
2022-11-03T05:15:36.235Z,100990.75
2022-11-03T05:18:17.278Z,100993.47
2022-11-03T05:20:50.732Z,100988.97
2022-11-03T05:23:20.337Z,100981.59
2022-11-03T05:25:50.727Z,100976.63
2022-11-03T05:28:26.356Z,100975.84
2022-11-03T05:30:56.308Z,100974.72
2022-11-03T05:33:29.464Z,100968.78
2022-11-03T05:35:59.733Z,100967.66
2022-11-03T05:38:32.732Z,100966.53
2022-11-03T05:41:01.575Z,100961.09
2022-11-03T05:43:30.418Z,100956.44
2022-11-03T05:46:03.297Z,100948.59
2022-11-03T05:48:34.454Z,100937.69
2022-11-03T05:51:11.956Z,100938.16
2022-11-03T05:53:43.532Z,100934.66
2022-11-03T05:56:19.508Z,100941.53
2022-11-03T05:58:49.927Z,100931.59
2022-11-03T06:01:26.221Z,100938.97
2022-11-03T06:03:54.315Z,100943.47
2022-11-03T06:06:30.824Z,100933.16
2022-11-03T06:09:03.379Z,100931.72
2022-11-03T06:11:36.347Z,100928.69
2022-11-03T06:14:18.686Z,100927.22
2022-11-03T06:16:54.157Z,100920.63
2022-11-03T06:19:29.962Z,100923.97
2022-11-03T06:22:04.031Z,100916.41
2022-11-03T06:24:34.989Z,100923.00
2022-11-03T06:27:02.945Z,100904.84
2022-11-03T06:29:33.603Z,100911.91
2022-11-03T06:32:03.321Z,100906.47
2022-11-03T06:34:43.056Z,100902.13
2022-11-03T06:37:18.906Z,100891.69
2022-11-03T06:39:47.284Z,100903.06
2022-11-03T06:42:16.524Z,100899.66
2022-11-03T06:44:46.916Z,100897.44
2022-11-03T06:47:27.132Z,100894.22
2022-11-03T06:49:57.711Z,100890.22
2022-11-03T06:52:29.945Z,100886.72
2022-11-03T06:55:22.810Z,100876.94
2022-11-03T06:57:54.482Z,100878.81
2022-11-03T07:00:40.983Z,100873.00
2022-11-03T07:03:19.543Z,100880.28
2022-11-03T07:05:47.448Z,100871.50
2022-11-03T07:08:23.516Z,100869.91
2022-11-03T07:10:56.645Z,100859.78
2022-11-03T07:13:26.177Z,100878.06
2022-11-03T07:15:54.235Z,100861.72
2022-11-03T07:18:28.792Z,100874.84
2022-11-03T07:20:58.639Z,100871.34
2022-11-03T07:23:30.313Z,100859.00
2022-11-03T07:26:00.948Z,100860.59
2022-11-03T07:28:34.381Z,100863.78
2022-11-03T07:31:11.189Z,100853.19
2022-11-03T07:33:44.068Z,100848.34
2022-11-03T07:36:17.495Z,100848.03
2022-11-03T07:38:49.099Z,100844.09
2022-11-03T07:41:20.660Z,100847.63
2022-11-03T07:43:55.947Z,100833.44
2022-11-03T07:46:25.071Z,100821.34
2022-11-03T07:48:57.922Z,100826.28
2022-11-03T07:51:29.848Z,100824.81
2022-11-03T07:54:03.885Z,100815.47
2022-11-03T07:56:36.890Z,100816.28
2022-11-03T07:59:14.459Z,100822.88
2022-11-03T08:01:44.344Z,100811.28
2022-11-03T08:04:18.265Z,100813.47
2022-11-03T08:06:46.241Z,100805.06
2022-11-03T08:09:14.124Z,100807.47
2022-11-03T08:11:42.090Z,100805.22
2022-11-03T08:14:10.516Z,100799.75
2022-11-03T08:16:38.766Z,100802.16
2022-11-03T08:19:07.663Z,100802.94
2022-11-03T08:21:37.143Z,100805.66
2022-11-03T08:24:06.083Z,100796.81
2022-11-03T08:26:34.038Z,100792.03
2022-11-03T08:29:01.933Z,100787.38
2022-11-03T08:31:29.845Z,100782.16
2022-11-03T08:33:57.746Z,100780.66
2022-11-03T08:36:25.656Z,100768.31
2022-11-03T08:38:54.967Z,100764.53
2022-11-03T08:41:22.902Z,100772.50
2022-11-03T08:43:51.124Z,100765.25
2022-11-03T08:46:19.115Z,100775.16
2022-11-03T08:48:47.784Z,100774.63
2022-11-03T08:51:16.780Z,100765.28
2022-11-03T08:53:44.797Z,100748.91
2022-11-03T08:56:17.032Z,100742.78
2022-11-03T08:58:46.140Z,100728.78
2022-11-03T09:01:14.121Z,100725.81
2022-11-03T09:03:42.594Z,100736.19
2022-11-03T09:06:11.013Z,100720.81
2022-11-03T09:11:28.358Z,100716.81
2022-11-03T09:13:57.955Z,100717.72
2022-11-03T09:16:26.380Z,100715.44
2022-11-03T09:18:54.293Z,100708.81
2022-11-03T09:21:22.131Z,100702.66
2022-11-03T09:23:50.125Z,100699.25
2022-11-03T09:26:17.978Z,100691.94
2022-11-03T09:28:47.319Z,100676.91
2022-11-03T09:31:15.365Z,100669.19
2022-11-03T09:33:43.281Z,100662.56
2022-11-03T09:36:11.324Z,100652.78
2022-11-03T09:38:39.188Z,100644.31
2022-11-03T09:41:18.685Z,100649.09
2022-11-03T09:43:58.512Z,100635.53
2022-11-03T09:46:27.249Z,100623.13
2022-11-03T09:48:56.639Z,100617.28
2022-11-03T09:51:27.403Z,100614.66
2022-11-03T09:53:57.603Z,100613.97
2022-11-03T09:56:27.127Z,100613.25
2022-11-03T09:58:56.451Z,100613.25
2022-11-03T10:01:24.798Z,100608.94
2022-11-03T10:03:53.405Z,100591.38
2022-11-03T10:06:21.605Z,100590.34
2022-11-03T10:08:50.468Z,100594.31
2022-11-03T10:11:18.871Z,100579.75
2022-11-03T10:13:49.175Z,100571.19
2022-11-03T10:16:21.931Z,100562.72
2022-11-03T10:18:50.633Z,100550.31
2022-11-03T10:21:21.034Z,100545.69
2022-11-03T10:23:50.460Z,100540.34
2022-11-03T10:26:19.976Z,100537.72
2022-11-03T10:29:09.027Z,100543.53
2022-11-03T10:31:39.859Z,100556.84
2022-11-03T10:34:25.496Z,100549.91
2022-11-03T10:37:12.148Z,100531.25
2022-11-03T10:39:40.530Z,100531.91
2022-11-03T10:42:19.456Z,100522.97
2022-11-03T10:44:47.582Z,100520.75
2022-11-03T10:47:34.518Z,100512.19
2022-11-03T10:50:20.321Z,100508.47
2022-11-03T10:52:48.432Z,100491.50
2022-11-03T10:55:20.536Z,100469.31
2022-11-03T10:57:53.164Z,100468.34
2022-11-03T11:00:21.651Z,100470.09
2022-11-03T11:02:56.752Z,100468.66
2022-11-03T11:05:25.635Z,100455.44
2022-11-03T11:07:54.917Z,100452.41
2022-11-03T11:10:25.220Z,100438.81
2022-11-03T11:13:08.268Z,100442.34
2022-11-03T11:15:39.187Z,100441.75
2022-11-03T11:18:09.763Z,100445.00
2022-11-03T11:20:40.198Z,100438.81
2022-11-03T11:23:50.203Z,100441.53
2022-11-03T11:26:32.637Z,100437.38
2022-11-03T11:29:42.132Z,100430.81
2022-11-03T11:32:49.821Z,100417.94
2022-11-03T11:35:35.086Z,100421.31
2022-11-03T11:38:36.191Z,100429.25
2022-11-03T11:41:04.240Z,100425.75
2022-11-03T11:43:32.613Z,100415.16
2022-11-03T11:46:34.645Z,100411.25
2022-11-03T11:49:18.840Z,100395.59
2022-11-03T11:51:48.480Z,100394.88
2022-11-03T11:54:20.359Z,100388.66
2022-11-03T11:56:51.038Z,100365.91
2022-11-03T11:59:25.371Z,100360.72
2022-11-03T12:01:57.392Z,100360.31
2022-11-03T12:04:30.028Z,100350.06
2022-11-03T12:06:59.581Z,100334.72
2022-11-03T12:09:29.139Z,100341.00
2022-11-03T12:12:03.497Z,100333.56
2022-11-03T12:14:37.891Z,100313.16
2022-11-03T12:17:38.755Z,100317.00
2022-11-03T12:20:47.275Z,100293.44
2022-11-03T12:23:51.055Z,100293.72
2022-11-03T12:26:43.609Z,100288.59
2022-11-03T12:29:11.572Z,100285.09
2022-11-03T12:31:42.096Z,100270.19
2022-11-03T12:34:10.051Z,100270.19
2022-11-03T12:36:38.055Z,100259.56
2022-11-03T12:39:08.397Z,100251.84
2022-11-03T12:41:37.940Z,100244.13
2022-11-03T12:44:06.804Z,100240.72
2022-11-03T12:46:34.799Z,100249.06
2022-11-03T12:49:02.797Z,100238.94
2022-11-03T12:51:30.821Z,100223.66
2022-11-03T12:53:58.771Z,100228.06
2022-11-03T12:56:26.727Z,100208.50
2022-11-03T12:58:56.211Z,100202.66
2022-11-03T13:01:24.406Z,100204.69
2022-11-03T13:03:52.621Z,100206.31
2022-11-03T13:06:20.780Z,100189.91
2022-11-03T13:08:53.145Z,100180.88
2022-11-03T13:11:38.797Z,100182.44
2022-11-03T13:14:18.340Z,100174.22
2022-11-03T13:16:48.125Z,100173.75
2022-11-03T13:19:16.158Z,100162.81
2022-11-03T13:21:45.002Z,100166.31
2022-11-03T13:24:12.979Z,100157.69
2022-11-03T13:26:41.333Z,100144.38
2022-11-03T13:29:11.912Z,100142.03
2022-11-03T13:31:39.875Z,100130.34
2022-11-03T13:34:08.021Z,100136.63
2022-11-03T13:36:36.223Z,100123.34
2022-11-03T13:39:11.249Z,100118.22
2022-11-03T13:41:40.529Z,100108.31
2022-11-03T13:44:09.200Z,100108.34
2022-11-03T13:46:38.545Z,100098.16
2022-11-03T13:51:56.085Z,100080.06
2022-11-03T14:00:03.653Z,100064.28
2022-11-03T14:05:27.159Z,100075.00
2022-11-03T14:07:55.173Z,100060.84
2022-11-03T14:10:23.179Z,100053.06
2022-11-03T14:12:51.384Z,100037.38
2022-11-03T14:15:19.579Z,100037.28
2022-11-03T14:17:49.003Z,100029.47
2022-11-03T14:20:16.976Z,100027.16
2022-11-03T14:22:45.015Z,100034.22
2022-11-03T14:25:12.923Z,100029.13
2022-11-03T14:27:40.971Z,100020.03
2022-11-03T14:30:09.963Z,100015.22
2022-11-03T14:32:37.944Z,100001.13
2022-11-03T14:35:08.986Z,99994.09
2022-11-03T14:37:37.291Z,99997.16
2022-11-03T14:40:06.391Z,100004.19
2022-11-03T14:42:33.430Z,99999.88
2022-11-03T14:45:01.423Z,99995.56
2022-11-03T14:47:31.500Z,99994.72
2022-11-03T14:49:59.386Z,99991.16
2022-11-03T14:52:28.725Z,99986.06
2022-11-03T14:54:56.649Z,99994.63
2022-11-03T14:57:24.729Z,100007.88
2022-11-03T14:59:53.761Z,100015.25
2022-11-03T15:02:22.364Z,100021.00
2022-11-03T15:04:50.512Z,100028.75
2022-11-03T15:07:18.412Z,100019.34
2022-11-03T15:09:47.843Z,100014.56
2022-11-03T15:12:15.930Z,100023.94
2022-11-03T15:14:44.043Z,100028.66
2022-11-03T15:17:12.737Z,100026.66
2022-11-03T15:19:40.707Z,100013.75
2022-11-03T15:22:08.714Z,100016.03
2022-11-03T15:27:26.037Z,100014.34
2022-11-03T15:29:54.199Z,99990.03
2022-11-03T15:32:22.319Z,99993.22
2022-11-03T15:34:50.345Z,99988.47
2022-11-03T15:37:18.587Z,99991.53
2022-11-03T15:39:46.614Z,99988.69
2022-11-03T15:42:14.689Z,99980.47
2022-11-03T15:44:44.292Z,99977.19
2022-11-03T15:47:12.355Z,99968.88
2022-11-03T15:49:40.486Z,99959.03
2022-11-03T15:52:10.258Z,99948.88
2022-11-03T15:54:42.407Z,99940.25
2022-11-03T15:57:11.161Z,99929.31
2022-11-03T15:59:40.222Z,99916.78
2022-11-03T16:02:27.577Z,99924.53
2022-11-03T16:04:59.018Z,99919.84
2022-11-03T16:07:27.332Z,99920.13
2022-11-03T16:09:55.608Z,99912.69
2022-11-03T16:12:24.624Z,99908.31
2022-11-03T16:14:52.800Z,99902.34
2022-11-03T16:17:23.216Z,99894.03
2022-11-03T16:19:51.497Z,99886.50
2022-11-03T16:22:22.008Z,99883.78
2022-11-03T16:24:51.821Z,99874.25
2022-11-03T16:27:20.666Z,99876.13
2022-11-03T16:29:48.659Z,99870.56
2022-11-03T16:32:19.585Z,99865.09
2022-11-03T16:34:51.143Z,99870.13
2022-11-03T16:37:19.447Z,99856.78
2022-11-03T16:39:47.849Z,99861.81
2022-11-03T16:42:16.040Z,99851.50
2022-11-03T16:44:44.622Z,99850.63
2022-11-03T16:47:12.794Z,99844.31
2022-11-03T16:49:42.011Z,99849.00
2022-11-03T16:52:11.727Z,99842.31
2022-11-03T16:54:39.728Z,99842.31
2022-11-03T16:57:07.931Z,99843.41
2022-11-03T16:59:36.017Z,99833.22
2022-11-03T17:02:04.711Z,99822.22
2022-11-03T17:04:33.019Z,99827.63
2022-11-03T17:07:01.146Z,99822.19
2022-11-03T17:09:31.016Z,99810.06
2022-11-03T17:11:59.059Z,99829.41
2022-11-03T17:14:27.144Z,99819.66
2022-11-03T17:16:57.938Z,99816.41
2022-11-03T17:19:25.874Z,99807.88
2022-11-03T17:21:54.153Z,99818.78
2022-11-03T17:24:22.195Z,99815.13
2022-11-03T17:26:57.208Z,99807.75
2022-11-03T17:29:32.156Z,99789.78
2022-11-03T17:32:00.307Z,99788.22
2022-11-03T17:34:28.991Z,99775.34
2022-11-03T17:36:57.414Z,99780.44
2022-11-03T17:39:34.422Z,99778.00
2022-11-03T17:42:17.317Z,99778.75
2022-11-03T17:44:47.456Z,99785.41
2022-11-03T17:47:16.308Z,99779.59
2022-11-03T17:49:44.807Z,99772.63
2022-11-03T17:52:15.670Z,99764.03
2022-11-03T17:54:43.749Z,99773.53
2022-11-03T17:57:17.995Z,99765.78
2022-11-03T17:59:51.029Z,99773.69
2022-11-03T18:02:22.036Z,99760.47
2022-11-03T18:04:51.676Z,99760.59
2022-11-03T18:07:24.102Z,99759.03
2022-11-03T18:09:58.547Z,99761.75
2022-11-03T18:12:53.965Z,99747.72
2022-11-03T18:15:24.883Z,99748.09
2022-11-03T18:17:53.103Z,99745.78
2022-11-03T18:20:23.674Z,99743.50
2022-11-03T18:22:52.202Z,99752.91
2022-11-03T18:25:22.447Z,99741.19
2022-11-03T18:27:51.838Z,99732.63
2022-11-03T18:30:20.221Z,99742.03
2022-11-03T18:32:49.105Z,99749.06
2022-11-03T18:35:20.467Z,99756.41
2022-11-03T18:37:48.834Z,99745.13
2022-11-03T18:40:20.581Z,99754.53
2022-11-03T18:42:49.379Z,99745.13
2022-11-03T18:45:19.992Z,99753.25
2022-11-03T18:47:48.109Z,99759.69
2022-11-03T18:50:18.389Z,99753.44
2022-11-03T18:52:48.884Z,99743.22
2022-11-03T18:55:18.318Z,99739.22
2022-11-03T18:57:47.894Z,99731.03
2022-11-03T19:00:21.613Z,99733.75
2022-11-03T19:02:52.569Z,99727.16
2022-11-03T19:05:21.204Z,99716.53
2022-11-03T19:07:53.126Z,99712.59
2022-11-03T19:10:24.728Z,99716.47
2022-11-03T19:12:53.075Z,99718.44
2022-11-03T19:15:24.852Z,99719.91
2022-11-03T19:17:57.764Z,99717.28
2022-11-03T19:20:25.790Z,99710.25
2022-11-03T19:22:54.143Z,99710.25
2022-11-03T19:25:23.007Z,99708.66
2022-11-03T19:27:52.353Z,99713.25
2022-11-03T19:30:22.761Z,99701.94
2022-11-03T19:32:54.975Z,99700.00
2022-11-03T19:35:25.445Z,99704.66
2022-11-03T19:38:02.335Z,99700.66
2022-11-03T19:40:31.039Z,99703.38
2022-11-03T19:42:58.330Z,99701.81
2022-11-03T19:45:29.124Z,99695.50
2022-11-03T19:50:48.978Z,99693.50
2022-11-03T19:53:22.001Z,99690.31
2022-11-03T19:55:50.955Z,99688.03
2022-11-03T19:58:21.661Z,99684.16
2022-11-03T20:00:51.914Z,99680.56
2022-11-03T20:03:20.665Z,99672.38
2022-11-03T20:05:52.618Z,99675.44
2022-11-03T20:08:23.710Z,99680.88
2022-11-03T20:10:52.489Z,99677.34
2022-11-03T20:13:25.086Z,99678.88
2022-11-03T20:16:00.745Z,99679.28
2022-11-03T20:18:29.168Z,99677.06
2022-11-03T20:20:57.631Z,99682.22
2022-11-03T20:23:28.757Z,99679.13
2022-11-03T20:25:57.639Z,99679.53
2022-11-03T20:28:28.617Z,99676.09
2022-11-03T20:31:01.153Z,99678.81
2022-11-03T20:33:29.492Z,99674.09
2022-11-03T20:35:59.205Z,99669.06
2022-11-03T20:38:32.641Z,99664.03
2022-11-03T20:41:04.680Z,99671.91
2022-11-03T20:43:36.681Z,99680.44
2022-11-03T20:46:18.068Z,99690.56
2022-11-03T20:48:46.436Z,99685.47
2022-11-03T20:51:26.564Z,99691.31
2022-11-03T20:53:57.197Z,99671.06
2022-11-03T20:56:28.328Z,99678.09
2022-11-03T20:58:57.909Z,99681.25
2022-11-03T21:01:33.497Z,99677.31
2022-11-03T21:04:03.415Z,99676.94
2022-11-03T21:06:33.788Z,99670.34
2022-11-03T21:09:01.991Z,99671.91
2022-11-03T21:11:40.727Z,99660.69
2022-11-03T21:14:19.940Z,99672.72
2022-11-03T21:17:07.442Z,99677.38
2022-11-03T21:19:58.650Z,99688.28
2022-11-03T21:25:24.297Z,99694.09
2022-11-03T21:27:53.821Z,99697.97
2022-11-03T21:30:22.637Z,99705.38
2022-11-03T21:32:52.630Z,99697.56
2022-11-03T21:35:22.384Z,99709.53
2022-11-03T21:37:53.345Z,99710.28
2022-11-03T21:40:21.405Z,99713.78
2022-11-03T21:43:07.105Z,99703.66
2022-11-03T21:45:36.241Z,99702.50
2022-11-03T21:48:24.175Z,99704.88
2022-11-03T21:50:52.287Z,99702.50
2022-11-03T21:53:20.639Z,99705.69
2022-11-03T21:55:49.716Z,99699.00
2022-11-03T21:58:19.305Z,99698.94
2022-11-03T22:00:49.649Z,99690.69
2022-11-03T22:03:19.322Z,99698.50
2022-11-03T22:05:47.337Z,99695.00
2022-11-03T22:08:16.188Z,99691.84
2022-11-03T22:10:44.456Z,99697.66
2022-11-03T22:13:12.802Z,99701.19
2022-11-03T22:15:58.723Z,99707.00
2022-11-03T22:18:29.787Z,99708.44
2022-11-03T22:21:16.322Z,99692.44
2022-11-03T22:24:03.866Z,99677.16
2022-11-03T22:26:49.085Z,99705.59
2022-11-03T22:29:34.640Z,99709.81
2022-11-03T22:32:02.807Z,99702.44
2022-11-03T22:34:49.342Z,99712.63
2022-11-03T22:37:17.402Z,99714.91
2022-11-03T22:40:07.537Z,99724.97
2022-11-03T22:42:52.721Z,99728.47
2022-11-03T22:45:39.890Z,99739.75
2022-11-03T22:48:08.804Z,99749.22
2022-11-03T22:50:39.219Z,99749.22
2022-11-03T22:53:21.528Z,99756.66
2022-11-03T22:55:49.492Z,99771.09
2022-11-03T22:58:17.728Z,99794.41
2022-11-03T23:00:47.604Z,99775.75
2022-11-03T23:03:16.197Z,99790.25
2022-11-03T23:05:45.801Z,99803.91
2022-11-03T23:08:13.807Z,99803.91
2022-11-03T23:10:41.867Z,99798.59
2022-11-03T23:13:10.370Z,99809.78
2022-11-03T23:15:43.759Z,99794.41
2022-11-03T23:18:29.405Z,99794.41
2022-11-03T23:21:08.098Z,99804.97
2022-11-03T23:23:54.266Z,99802.19
2022-11-03T23:26:23.096Z,99787.31
2022-11-03T23:28:51.022Z,99799.44
2022-11-03T23:31:19.589Z,99797.50
2022-11-03T23:33:47.788Z,99806.75
2022-11-03T23:36:18.587Z,99820.75
2022-11-03T23:38:46.701Z,99830.88
2022-11-03T23:41:16.411Z,99843.94
2022-11-03T23:43:45.195Z,99857.84
2022-11-03T23:46:35.640Z,99862.41
2022-11-03T23:49:09.751Z,99869.81
2022-11-03T23:51:40.269Z,99877.75
2022-11-03T23:54:12.009Z,99884.59
2022-11-03T23:56:59.199Z,99886.91
2022-11-03T23:59:31.280Z,99887.59
